Uno Mas — WDB8447 — position and weather

sailwx.info

Track history (hours):
 
Tides and Currents Weather Stations Pressure Air Temp Water Temp Dewpoint Dewpoint Depression Visibility Wind Speed Wind Dir Waves Ship Positions

Uno Mas

Owner: mccarty iii, george d, ingleside, TX. More information available from US FCC via Universal Licensing System and Coast Guard Vessel Documentation Center.

Last reported at 2017-Sep-21 12:41 UTC. Time now 2017-Sep-24 19:16 UTC.
Position N 29°36' W 090°58'.

Length 16 m.

Type: Towing. MMSI: 367087250.

Date/timePositionNaut miles runAvg speedWind from/ knotsBaromVisibWave heightAir tempDewpointWater temp
2017-Sep-21 12:41N 29°36' W 090°58'2 5.6
2017-Sep-21 12:16N 29°34' W 090°56'2 5.9
2017-Sep-21 12:00N 29°33' W 090°55'3 5.9
2017-Sep-21 11:28N 29°32' W 090°51'3 5.9
2017-Sep-21 11:01N 29°32' W 090°48'3 5.2
2017-Sep-21 10:30N 29°33' W 090°45'3 5.0
2017-Sep-21 10:00N 29°35' W 090°43'2 5.0
2017-Sep-21 09:30N 29°37' W 090°42'0 0.6
2017-Sep-21 09:00N 29°37' W 090°42'3 5.4
2017-Sep-21 08:30N 29°36' W 090°39'3 5.5
2017-Sep-21 08:00N 29°35' W 090°36'3 5.7
2017-Sep-21 07:30N 29°34' W 090°33'7 5.9
2017-Sep-21 06:16N 29°33' W 090°24'2 4.8
2017-Sep-21 05:50N 29°35' W 090°23'2 5.6
2017-Sep-21 05:25N 29°37' W 090°21'4 0.2
2017-Sep-20 12:16N 29°33' W 090°24'1 1.1
2017-Sep-20 11:35N 29°33' W 090°25'3 6.3
2017-Sep-20 11:10N 29°33' W 090°28'1 6.5
2017-Sep-20 11:00N 29°34' W 090°29'3 6.4
2017-Sep-20 10:30N 29°34' W 090°33'3 6.2
2017-Sep-20 10:00N 29°35' W 090°36'3 6.2
2017-Sep-20 09:30N 29°36' W 090°39'3 5.6
2017-Sep-20 09:00N 29°37' W 090°42'2 3.6
2017-Sep-20 08:30N 29°35' W 090°43'0 0.2
2017-Sep-20 08:00N 29°35' W 090°43'0 0.1
2017-Sep-20 07:31N 29°35' W 090°43'2 4.7
2017-Sep-20 07:00N 29°33' W 090°45'3 6.3
2017-Sep-20 06:30N 29°32' W 090°48'4 7.1
2017-Sep-20 06:00N 29°32' W 090°53'  
2017-Sep-17 15:42N 29°36' W 090°58'2 5.3
2017-Sep-17 15:22N 29°34' W 090°57'2 5.7
2017-Sep-17 14:59N 29°33' W 090°55'3 5.7
2017-Sep-17 14:26N 29°32' W 090°51'2 5.8
2017-Sep-17 14:00N 29°32' W 090°48'3 5.2
2017-Sep-17 13:30N 29°33' W 090°45'3 5.2
2017-Sep-17 13:00N 29°34' W 090°43'3 5.0
2017-Sep-17 12:30N 29°37' W 090°42'3 5.5
2017-Sep-17 12:00N 29°36' W 090°39'3 5.5
2017-Sep-17 11:30N 29°35' W 090°37'3 5.4
2017-Sep-17 11:00N 29°34' W 090°34'4 0.1
2017-Sep-15 11:55N 29°34' W 090°29'2 5.9
2017-Sep-15 11:30N 29°34' W 090°32'3 5.9
2017-Sep-15 11:00N 29°35' W 090°35'3 5.8
2017-Sep-15 10:30N 29°35' W 090°39'3 5.9
2017-Sep-15 10:00N 29°37' W 090°42'2 4.9
2017-Sep-15 09:30N 29°35' W 090°43'2 4.0
2017-Sep-15 09:00N 29°33' W 090°45'0 0.0
2017-Sep-15 08:30N 29°33' W 090°45'1 1.5
2017-Sep-15 08:00N 29°33' W 090°45'2 4.9
2017-Sep-15 07:30N 29°32' W 090°48'3 5.6
2017-Sep-15 06:58N 29°32' W 090°52'3 5.6
2017-Sep-15 06:30N 29°33' W 090°54'6 0.1
2017-Sep-13 05:27N 29°37' W 090°60'3 6.1
2017-Sep-13 05:00N 29°35' W 090°58'3 6.2
2017-Sep-13 04:30N 29°33' W 090°55'3 6.0
2017-Sep-13 04:00N 29°32' W 090°52'3 6.0
2017-Sep-13 03:30N 29°32' W 090°48'3 5.3
2017-Sep-13 03:00N 29°33' W 090°45'2 4.7
2017-Sep-13 02:30N 29°34' W 090°43'3 5.7
2017-Sep-13 02:00N 29°31' W 090°42'3 5.9
2017-Sep-13 01:30N 29°28' W 090°43'3 5.8
2017-Sep-13 01:00N 29°25' W 090°43'2 3.6
2017-Sep-13 00:29N 29°24' W 090°45'3 5.4
2017-Sep-13 00:00N 29°25' W 090°47'3 3.2
2017-Sep-12 23:12N 29°25' W 090°50'0 0.1
2017-Sep-12 16:19N 29°25' W 090°51'1 0.4
2017-Sep-12 13:12N 29°25' W 090°49'0 0.0
2017-Sep-12 12:57N 29°25' W 090°49'0 0.0
2017-Sep-12 06:12N 29°25' W 090°49'0 0.0
2017-Sep-12 05:43N 29°25' W 090°49'0 0.0
2017-Sep-12 05:24N 29°25' W 090°49'0 0.0
2017-Sep-12 04:53N 29°25' W 090°49'0 0.0
2017-Sep-12 04:30N 29°25' W 090°49'0 0.0
2017-Sep-12 03:59N 29°25' W 090°49'0 0.0
2017-Sep-12 03:30N 29°25' W 090°49'0 0.1
2017-Sep-11 23:47N 29°25' W 090°49'1 2.4
2017-Sep-11 23:13N 29°25' W 090°47'1 4.0
2017-Sep-11 22:54N 29°24' W 090°46'  
Track history (hours):
 
Tides and Currents Weather Stations Pressure Air Temp Water Temp Dewpoint Dewpoint Depression Visibility Wind Speed Wind Dir Waves Ship Positions

Uno Mas

Owner: mccarty iii, george d, ingleside, TX. More information available from US FCC via Universal Licensing System and Coast Guard Vessel Documentation Center.

Last reported at 2017-Sep-21 12:41 UTC. Time now 2017-Sep-24 19:16 UTC.
Position N 29°36' W 090°58'.

Length 16 m.

Type: Towing. MMSI: 367087250.

Date/timePositionNaut miles runAvg speedWind from/ knotsBaromVisibWave heightAir tempDewpointWater temp
2017-Sep-21 12:41N 29°36' W 090°58'2 5.6
2017-Sep-21 12:16N 29°34' W 090°56'2 5.9
2017-Sep-21 12:00N 29°33' W 090°55'3 5.9
2017-Sep-21 11:28N 29°32' W 090°51'3 5.9
2017-Sep-21 11:01N 29°32' W 090°48'3 5.2
2017-Sep-21 10:30N 29°33' W 090°45'3 5.0
2017-Sep-21 10:00N 29°35' W 090°43'2 5.0
2017-Sep-21 09:30N 29°37' W 090°42'0 0.6
2017-Sep-21 09:00N 29°37' W 090°42'3 5.4
2017-Sep-21 08:30N 29°36' W 090°39'3 5.5
2017-Sep-21 08:00N 29°35' W 090°36'3 5.7
2017-Sep-21 07:30N 29°34' W 090°33'7 5.9
2017-Sep-21 06:16N 29°33' W 090°24'2 4.8
2017-Sep-21 05:50N 29°35' W 090°23'2 5.6
2017-Sep-21 05:25N 29°37' W 090°21'4 0.2
2017-Sep-20 12:16N 29°33' W 090°24'1 1.1
2017-Sep-20 11:35N 29°33' W 090°25'3 6.3
2017-Sep-20 11:10N 29°33' W 090°28'1 6.5
2017-Sep-20 11:00N 29°34' W 090°29'3 6.4
2017-Sep-20 10:30N 29°34' W 090°33'3 6.2
2017-Sep-20 10:00N 29°35' W 090°36'3 6.2
2017-Sep-20 09:30N 29°36' W 090°39'3 5.6
2017-Sep-20 09:00N 29°37' W 090°42'2 3.6
2017-Sep-20 08:30N 29°35' W 090°43'0 0.2
2017-Sep-20 08:00N 29°35' W 090°43'0 0.1
2017-Sep-20 07:31N 29°35' W 090°43'2 4.7
2017-Sep-20 07:00N 29°33' W 090°45'3 6.3
2017-Sep-20 06:30N 29°32' W 090°48'4 7.1
2017-Sep-20 06:00N 29°32' W 090°53'  
2017-Sep-17 15:42N 29°36' W 090°58'2 5.3
2017-Sep-17 15:22N 29°34' W 090°57'2 5.7
2017-Sep-17 14:59N 29°33' W 090°55'3 5.7
2017-Sep-17 14:26N 29°32' W 090°51'2 5.8
2017-Sep-17 14:00N 29°32' W 090°48'3 5.2
2017-Sep-17 13:30N 29°33' W 090°45'3 5.2
2017-Sep-17 13:00N 29°34' W 090°43'3 5.0
2017-Sep-17 12:30N 29°37' W 090°42'3 5.5
2017-Sep-17 12:00N 29°36' W 090°39'3 5.5
2017-Sep-17 11:30N 29°35' W 090°37'3 5.4
2017-Sep-17 11:00N 29°34' W 090°34'4 0.1
2017-Sep-15 11:55N 29°34' W 090°29'2 5.9
2017-Sep-15 11:30N 29°34' W 090°32'3 5.9
2017-Sep-15 11:00N 29°35' W 090°35'3 5.8
2017-Sep-15 10:30N 29°35' W 090°39'3 5.9
2017-Sep-15 10:00N 29°37' W 090°42'2 4.9
2017-Sep-15 09:30N 29°35' W 090°43'2 4.0
2017-Sep-15 09:00N 29°33' W 090°45'0 0.0
2017-Sep-15 08:30N 29°33' W 090°45'1 1.5
2017-Sep-15 08:00N 29°33' W 090°45'2 4.9
2017-Sep-15 07:30N 29°32' W 090°48'3 5.6
2017-Sep-15 06:58N 29°32' W 090°52'3 5.6
2017-Sep-15 06:30N 29°33' W 090°54'6 0.1
2017-Sep-13 05:27N 29°37' W 090°60'3 6.1
2017-Sep-13 05:00N 29°35' W 090°58'3 6.2
2017-Sep-13 04:30N 29°33' W 090°55'3 6.0
2017-Sep-13 04:00N 29°32' W 090°52'3 6.0
2017-Sep-13 03:30N 29°32' W 090°48'3 5.3
2017-Sep-13 03:00N 29°33' W 090°45'2 4.7
2017-Sep-13 02:30N 29°34' W 090°43'3 5.7
2017-Sep-13 02:00N 29°31' W 090°42'3 5.9
2017-Sep-13 01:30N 29°28' W 090°43'3 5.8
2017-Sep-13 01:00N 29°25' W 090°43'2 3.6
2017-Sep-13 00:29N 29°24' W 090°45'3 5.4
2017-Sep-13 00:00N 29°25' W 090°47'3 3.2
2017-Sep-12 23:12N 29°25' W 090°50'0 0.1
2017-Sep-12 16:19N 29°25' W 090°51'1 0.4
2017-Sep-12 13:12N 29°25' W 090°49'0 0.0
2017-Sep-12 12:57N 29°25' W 090°49'0 0.0
2017-Sep-12 06:12N 29°25' W 090°49'0 0.0
2017-Sep-12 05:43N 29°25' W 090°49'0 0.0
2017-Sep-12 05:24N 29°25' W 090°49'0 0.0
2017-Sep-12 04:53N 29°25' W 090°49'0 0.0
2017-Sep-12 04:30N 29°25' W 090°49'0 0.0
2017-Sep-12 03:59N 29°25' W 090°49'0 0.0
2017-Sep-12 03:30N 29°25' W 090°49'0 0.1
2017-Sep-11 23:47N 29°25' W 090°49'1 2.4
2017-Sep-11 23:13N 29°25' W 090°47'1 4.0
2017-Sep-11 22:54N 29°24' W 090°46'  

Dump ship's entire track history